Chitose — JD2925 — position and weather

sailwx.info

Track history (hours):
 
Tides and Currents Weather Stations Pressure Air Temp Water Temp Dewpoint Dewpoint Depression Visibility Wind Speed Wind Dir Waves Ship Positions

Chitose

Last reported at 2014-Oct-31 16:33 UTC. Time now 2014-Oct-31 16:36 UTC.
Position N 35°23' E 139°40'.

Length 33 m; draft 3.8 m.

Type: Tug. MMSI: 431000953.

Date/timePositionNaut miles runAvg speedWind from/ knotsBaromVisibWave heightAir tempDewpointWater temp
2014-Oct-31 16:33N 35°23' E 139°40'0 0.0
2014-Oct-31 15:33N 35°23' E 139°40'2 1.9
2014-Oct-31 14:33N 35°25' E 139°41'3 2.7
2014-Oct-31 13:33N 35°27' E 139°39'0 0.0
2014-Oct-31 12:33N 35°27' E 139°39'0 0.0
2014-Oct-31 11:34N 35°27' E 139°39'0 0.0
2014-Oct-31 10:33N 35°27' E 139°39'3 2.7
2014-Oct-31 09:33N 35°25' E 139°41'3 2.7
2014-Oct-31 08:33N 35°28' E 139°39'0 0.3
2014-Oct-31 07:34N 35°27' E 139°39'0 0.0
2014-Oct-31 06:33N 35°27' E 139°39'0 0.0
2014-Oct-31 05:34N 35°27' E 139°39'0 0.0
2014-Oct-31 04:33N 35°27' E 139°39'0 0.0
2014-Oct-31 03:33N 35°27' E 139°39'0 0.0
2014-Oct-31 02:33N 35°27' E 139°39'0 0.1
2014-Oct-31 01:34N 35°27' E 139°39'3 3.2
2014-Oct-31 00:33N 35°26' E 139°42'1 1.1
2014-Oct-30 23:33N 35°26' E 139°43'5 5.2
2014-Oct-30 22:33N 35°31' E 139°46'4 3.9
2014-Oct-30 21:33N 35°29' E 139°42'3 3.1
2014-Oct-30 20:33N 35°27' E 139°39'2 0.2
2014-Oct-30 10:07N 35°27' E 139°41'1 2.5
2014-Oct-30 09:33N 35°26' E 139°42'1 0.7
2014-Oct-30 08:33N 35°27' E 139°43'0 0.0
2014-Oct-30 07:33N 35°27' E 139°43'5 4.8
2014-Oct-30 06:33N 35°31' E 139°46'7 7.1
2014-Oct-30 05:33N 35°27' E 139°39'0 0.0
2014-Oct-30 04:33N 35°27' E 139°39'4 4.1
2014-Oct-30 03:33N 35°29' E 139°43'2 2.1
2014-Oct-30 02:34N 35°27' E 139°43'1 0.7
2014-Oct-30 01:33N 35°27' E 139°42'0 0.0
2014-Oct-30 00:33N 35°27' E 139°42'0 0.0
2014-Oct-29 23:33N 35°27' E 139°42'1 0.6
2014-Oct-29 22:34N 35°27' E 139°43'4 3.5
2014-Oct-29 21:33N 35°27' E 139°39'0 0.0
2014-Oct-29 07:10N 35°27' E 139°39'0 0.0
2014-Oct-29 06:33N 35°27' E 139°39'0 0.0
2014-Oct-29 05:34N 35°27' E 139°39'0 0.0
2014-Oct-29 04:33N 35°27' E 139°39'0 0.0
2014-Oct-29 03:33N 35°27' E 139°39'0 0.0
2014-Oct-29 02:33N 35°27' E 139°39'7 7.1
2014-Oct-29 01:33N 35°31' E 139°46'0 0.2
2014-Oct-29 00:33N 35°31' E 139°46'1 1.4
2014-Oct-28 23:29N 35°29' E 139°47'5 5.2
2014-Oct-28 22:33N 35°27' E 139°42'1 0.1
2014-Oct-27 23:33N 35°26' E 139°42'3 2.6
2014-Oct-27 22:33N 35°28' E 139°41'2 1.7
2014-Oct-27 21:33N 35°27' E 139°43'3 2.7
2014-Oct-27 20:33N 35°27' E 139°39'0 0.0
2014-Oct-27 19:33N 35°27' E 139°39'0 0.0
2014-Oct-27 18:33N 35°27' E 139°39'0 0.0
2014-Oct-27 17:33N 35°27' E 139°39'0 0.0
2014-Oct-27 16:33N 35°27' E 139°39'0 0.0
2014-Oct-27 15:33N 35°27' E 139°39'0 0.0
2014-Oct-27 14:33N 35°27' E 139°39'2 1.5
2014-Oct-27 13:33N 35°27' E 139°41'4 3.9
2014-Oct-27 12:33N 35°23' E 139°41'8 7.7
2014-Oct-27 11:33N 35°30' E 139°46'4 3.5
2014-Oct-27 10:33N 35°27' E 139°42'0 0.0
2014-Oct-27 09:33N 35°27' E 139°42'2 1.6
2014-Oct-27 08:34N 35°28' E 139°41'2 2.1
2014-Oct-27 07:33N 35°27' E 139°39'0 0.0
2014-Oct-27 06:33N 35°27' E 139°39'0 0.0
2014-Oct-27 05:33N 35°27' E 139°39'0 0.0
2014-Oct-27 04:33N 35°27' E 139°39'0 0.0
2014-Oct-27 03:33N 35°27' E 139°39'0 0.0
2014-Oct-27 02:33N 35°27' E 139°39'0 0.0
2014-Oct-27 01:33N 35°27' E 139°39'0 0.0
2014-Oct-27 00:33N 35°27' E 139°39'0 0.0
2014-Oct-26 23:33N 35°27' E 139°39'3 3.0
2014-Oct-26 22:33N 35°26' E 139°42'3 2.9
2014-Oct-26 21:34N 35°28' E 139°39'0 0.0
2014-Oct-26 06:34N 35°27' E 139°39'0 0.0
2014-Oct-26 05:33N 35°27' E 139°39'0 0.0
2014-Oct-26 04:34N 35°27' E 139°39'2 1.6
2014-Oct-26 03:33N 35°27' E 139°40'1 1.3
2014-Oct-26 02:34N 35°26' E 139°42'2 1.8
2014-Oct-26 01:33N 35°24' E 139°41'1 1.1
2014-Oct-26 00:33N 35°23' E 139°41'5 4.6
2014-Oct-25 23:34N 35°28' E 139°40'1 1.1
2014-Oct-25 22:33N 35°27' E 139°41'2 2.4
2014-Oct-25 21:33N 35°27' E 139°39'1 0.0
2014-Oct-24 11:07N 35°27' E 139°39'1 2.4
2014-Oct-24 10:33N 35°26' E 139°40'0 0.1
2014-Oct-24 09:33N 35°26' E 139°40'1 0.9
2014-Oct-24 08:33N 35°27' E 139°39'1 0.9
2014-Oct-24 07:33N 35°27' E 139°41'1 0.9
2014-Oct-24 06:33N 35°27' E 139°39'0 0.0
2014-Oct-24 05:33N 35°27' E 139°39'3 3.0
2014-Oct-24 04:33N 35°26' E 139°43'3 2.7
2014-Oct-24 03:34N 35°28' E 139°40'0 0.2
2014-Oct-24 02:33N 35°28' E 139°41'0 0.0
2014-Oct-24 01:33N 35°28' E 139°41'0 0.0
2014-Oct-24 00:33N 35°28' E 139°41'1 1.2
2014-Oct-23 23:33N 35°27' E 139°41'2 2.2
2014-Oct-23 22:33N 35°28' E 139°39'0 0.4
2014-Oct-23 21:33N 35°27' E 139°39'0 0.0
2014-Oct-23 20:33N 35°27' E 139°39'0 0.0
2014-Oct-23 09:17N 35°28' E 139°39'3 3.9
2014-Oct-23 08:34N 35°26' E 139°42'1 0.6
2014-Oct-23 07:33N 35°27' E 139°43'2 1.8
2014-Oct-23 06:34N 35°26' E 139°41'2 2.1
2014-Oct-23 05:33N 35°27' E 139°39'0 0.0
2014-Oct-23 04:34N 35°27' E 139°39'2 1.7
2014-Oct-23 03:34N 35°27' E 139°41'4 3.7
2014-Oct-23 02:33N 35°29' E 139°45'2 2.3
2014-Oct-23 01:34N 35°27' E 139°43'0 0.3
2014-Oct-23 00:34N 35°27' E 139°43'1 1.2
2014-Oct-22 23:34N 35°28' E 139°41'2 1.6
2014-Oct-22 22:34N 35°27' E 139°43'4 3.7
2014-Oct-22 21:34N 35°27' E 139°39'4 0.3
2014-Oct-22 07:33N 35°25' E 139°42'1 1.1
2014-Oct-22 06:34N 35°24' E 139°41'4 3.7
2014-Oct-22 05:34N 35°27' E 139°39'0 0.0
2014-Oct-22 04:34N 35°27' E 139°39'3 2.8
2014-Oct-22 03:34N 35°26' E 139°42'2 2.4
2014-Oct-22 02:34N 35°28' E 139°39'1 0.5
2014-Oct-22 01:33N 35°27' E 139°39'0 0.0
2014-Oct-22 00:33N 35°27' E 139°39'0 0.0
2014-Oct-21 23:34N 35°27' E 139°39'2 1.6
2014-Oct-21 22:33N 35°27' E 139°40'2 1.6
2014-Oct-21 21:33N 35°27' E 139°39'0 0.0
2014-Oct-21 20:33N 35°27' E 139°39'0 0.0
2014-Oct-21 19:33N 35°27' E 139°39'0 0.0
2014-Oct-21 18:33N 35°27' E 139°39'0 0.0
2014-Oct-21 17:33N 35°27' E 139°39'0 0.0
2014-Oct-21 16:34N 35°27' E 139°39'  
Track history (hours):
 
Tides and Currents Weather Stations Pressure Air Temp Water Temp Dewpoint Dewpoint Depression Visibility Wind Speed Wind Dir Waves Ship Positions

Chitose

Last reported at 2014-Oct-31 16:33 UTC. Time now 2014-Oct-31 16:36 UTC.
Position N 35°23' E 139°40'.

Length 33 m; draft 3.8 m.

Type: Tug. MMSI: 431000953.

Date/timePositionNaut miles runAvg speedWind from/ knotsBaromVisibWave heightAir tempDewpointWater temp
2014-Oct-31 16:33N 35°23' E 139°40'0 0.0
2014-Oct-31 15:33N 35°23' E 139°40'2 1.9
2014-Oct-31 14:33N 35°25' E 139°41'3 2.7
2014-Oct-31 13:33N 35°27' E 139°39'0 0.0
2014-Oct-31 12:33N 35°27' E 139°39'0 0.0
2014-Oct-31 11:34N 35°27' E 139°39'0 0.0
2014-Oct-31 10:33N 35°27' E 139°39'3 2.7
2014-Oct-31 09:33N 35°25' E 139°41'3 2.7
2014-Oct-31 08:33N 35°28' E 139°39'0 0.3
2014-Oct-31 07:34N 35°27' E 139°39'0 0.0
2014-Oct-31 06:33N 35°27' E 139°39'0 0.0
2014-Oct-31 05:34N 35°27' E 139°39'0 0.0
2014-Oct-31 04:33N 35°27' E 139°39'0 0.0
2014-Oct-31 03:33N 35°27' E 139°39'0 0.0
2014-Oct-31 02:33N 35°27' E 139°39'0 0.1
2014-Oct-31 01:34N 35°27' E 139°39'3 3.2
2014-Oct-31 00:33N 35°26' E 139°42'1 1.1
2014-Oct-30 23:33N 35°26' E 139°43'5 5.2
2014-Oct-30 22:33N 35°31' E 139°46'4 3.9
2014-Oct-30 21:33N 35°29' E 139°42'3 3.1
2014-Oct-30 20:33N 35°27' E 139°39'2 0.2
2014-Oct-30 10:07N 35°27' E 139°41'1 2.5
2014-Oct-30 09:33N 35°26' E 139°42'1 0.7
2014-Oct-30 08:33N 35°27' E 139°43'0 0.0
2014-Oct-30 07:33N 35°27' E 139°43'5 4.8
2014-Oct-30 06:33N 35°31' E 139°46'7 7.1
2014-Oct-30 05:33N 35°27' E 139°39'0 0.0
2014-Oct-30 04:33N 35°27' E 139°39'4 4.1
2014-Oct-30 03:33N 35°29' E 139°43'2 2.1
2014-Oct-30 02:34N 35°27' E 139°43'1 0.7
2014-Oct-30 01:33N 35°27' E 139°42'0 0.0
2014-Oct-30 00:33N 35°27' E 139°42'0 0.0
2014-Oct-29 23:33N 35°27' E 139°42'1 0.6
2014-Oct-29 22:34N 35°27' E 139°43'4 3.5
2014-Oct-29 21:33N 35°27' E 139°39'0 0.0
2014-Oct-29 07:10N 35°27' E 139°39'0 0.0
2014-Oct-29 06:33N 35°27' E 139°39'0 0.0
2014-Oct-29 05:34N 35°27' E 139°39'0 0.0
2014-Oct-29 04:33N 35°27' E 139°39'0 0.0
2014-Oct-29 03:33N 35°27' E 139°39'0 0.0
2014-Oct-29 02:33N 35°27' E 139°39'7 7.1
2014-Oct-29 01:33N 35°31' E 139°46'0 0.2
2014-Oct-29 00:33N 35°31' E 139°46'1 1.4
2014-Oct-28 23:29N 35°29' E 139°47'5 5.2
2014-Oct-28 22:33N 35°27' E 139°42'1 0.1
2014-Oct-27 23:33N 35°26' E 139°42'3 2.6
2014-Oct-27 22:33N 35°28' E 139°41'2 1.7
2014-Oct-27 21:33N 35°27' E 139°43'3 2.7
2014-Oct-27 20:33N 35°27' E 139°39'0 0.0
2014-Oct-27 19:33N 35°27' E 139°39'0 0.0
2014-Oct-27 18:33N 35°27' E 139°39'0 0.0
2014-Oct-27 17:33N 35°27' E 139°39'0 0.0
2014-Oct-27 16:33N 35°27' E 139°39'0 0.0
2014-Oct-27 15:33N 35°27' E 139°39'0 0.0
2014-Oct-27 14:33N 35°27' E 139°39'2 1.5
2014-Oct-27 13:33N 35°27' E 139°41'4 3.9
2014-Oct-27 12:33N 35°23' E 139°41'8 7.7
2014-Oct-27 11:33N 35°30' E 139°46'4 3.5
2014-Oct-27 10:33N 35°27' E 139°42'0 0.0
2014-Oct-27 09:33N 35°27' E 139°42'2 1.6
2014-Oct-27 08:34N 35°28' E 139°41'2 2.1
2014-Oct-27 07:33N 35°27' E 139°39'0 0.0
2014-Oct-27 06:33N 35°27' E 139°39'0 0.0
2014-Oct-27 05:33N 35°27' E 139°39'0 0.0
2014-Oct-27 04:33N 35°27' E 139°39'0 0.0
2014-Oct-27 03:33N 35°27' E 139°39'0 0.0
2014-Oct-27 02:33N 35°27' E 139°39'0 0.0
2014-Oct-27 01:33N 35°27' E 139°39'0 0.0
2014-Oct-27 00:33N 35°27' E 139°39'0 0.0
2014-Oct-26 23:33N 35°27' E 139°39'3 3.0
2014-Oct-26 22:33N 35°26' E 139°42'3 2.9
2014-Oct-26 21:34N 35°28' E 139°39'0 0.0
2014-Oct-26 06:34N 35°27' E 139°39'0 0.0
2014-Oct-26 05:33N 35°27' E 139°39'0 0.0
2014-Oct-26 04:34N 35°27' E 139°39'2 1.6
2014-Oct-26 03:33N 35°27' E 139°40'1 1.3
2014-Oct-26 02:34N 35°26' E 139°42'2 1.8
2014-Oct-26 01:33N 35°24' E 139°41'1 1.1
2014-Oct-26 00:33N 35°23' E 139°41'5 4.6
2014-Oct-25 23:34N 35°28' E 139°40'1 1.1
2014-Oct-25 22:33N 35°27' E 139°41'2 2.4
2014-Oct-25 21:33N 35°27' E 139°39'1 0.0
2014-Oct-24 11:07N 35°27' E 139°39'1 2.4
2014-Oct-24 10:33N 35°26' E 139°40'0 0.1
2014-Oct-24 09:33N 35°26' E 139°40'1 0.9
2014-Oct-24 08:33N 35°27' E 139°39'1 0.9
2014-Oct-24 07:33N 35°27' E 139°41'1 0.9
2014-Oct-24 06:33N 35°27' E 139°39'0 0.0
2014-Oct-24 05:33N 35°27' E 139°39'3 3.0
2014-Oct-24 04:33N 35°26' E 139°43'3 2.7
2014-Oct-24 03:34N 35°28' E 139°40'0 0.2
2014-Oct-24 02:33N 35°28' E 139°41'0 0.0
2014-Oct-24 01:33N 35°28' E 139°41'0 0.0
2014-Oct-24 00:33N 35°28' E 139°41'1 1.2
2014-Oct-23 23:33N 35°27' E 139°41'2 2.2
2014-Oct-23 22:33N 35°28' E 139°39'0 0.4
2014-Oct-23 21:33N 35°27' E 139°39'0 0.0
2014-Oct-23 20:33N 35°27' E 139°39'0 0.0
2014-Oct-23 09:17N 35°28' E 139°39'3 3.9
2014-Oct-23 08:34N 35°26' E 139°42'1 0.6
2014-Oct-23 07:33N 35°27' E 139°43'2 1.8
2014-Oct-23 06:34N 35°26' E 139°41'2 2.1
2014-Oct-23 05:33N 35°27' E 139°39'0 0.0
2014-Oct-23 04:34N 35°27' E 139°39'2 1.7
2014-Oct-23 03:34N 35°27' E 139°41'4 3.7
2014-Oct-23 02:33N 35°29' E 139°45'2 2.3
2014-Oct-23 01:34N 35°27' E 139°43'0 0.3
2014-Oct-23 00:34N 35°27' E 139°43'1 1.2
2014-Oct-22 23:34N 35°28' E 139°41'2 1.6
2014-Oct-22 22:34N 35°27' E 139°43'4 3.7
2014-Oct-22 21:34N 35°27' E 139°39'4 0.3
2014-Oct-22 07:33N 35°25' E 139°42'1 1.1
2014-Oct-22 06:34N 35°24' E 139°41'4 3.7
2014-Oct-22 05:34N 35°27' E 139°39'0 0.0
2014-Oct-22 04:34N 35°27' E 139°39'3 2.8
2014-Oct-22 03:34N 35°26' E 139°42'2 2.4
2014-Oct-22 02:34N 35°28' E 139°39'1 0.5
2014-Oct-22 01:33N 35°27' E 139°39'0 0.0
2014-Oct-22 00:33N 35°27' E 139°39'0 0.0
2014-Oct-21 23:34N 35°27' E 139°39'2 1.6
2014-Oct-21 22:33N 35°27' E 139°40'2 1.6
2014-Oct-21 21:33N 35°27' E 139°39'0 0.0
2014-Oct-21 20:33N 35°27' E 139°39'0 0.0
2014-Oct-21 19:33N 35°27' E 139°39'0 0.0
2014-Oct-21 18:33N 35°27' E 139°39'0 0.0
2014-Oct-21 17:33N 35°27' E 139°39'0 0.0
2014-Oct-21 16:34N 35°27' E 139°39'  

Dump ship's entire track history